Indian Valley, Virginia
Current Conditions -  °F | °C
As of 3:15 PM on Thursday 29 Jan 2015 (Local Time) from KPSK Reporting Station
Scattered Clouds Scattered Clouds  
Wind Chill: 39°   Ceiling: Unl
Heat Index: 43°   Visibility: 10mi
Dew Point: 30°   Wind: 8mph
Humidity: 59%   Direction: 190°S
Pressure: 30.01"   Gusts: NA
Location:  36.91°N, 80.55°W
Report Text: KPSK 292015Z AUTO 19007KT 10SM SCT048 06/M01 A3001 RMK AO2 T00631011
Loading
Personal Weather Stations






























Interactive Weather Map New forecast layout! Learn more

10-Day Weather Forecast

Advertisements
Track Severe Weather on mobile